createdAt,value
2023-05-06T00:00:25.952Z,4.55
2023-05-06T00:02:53.520Z,6.55
2023-05-06T00:05:20.894Z,4.35
2023-05-06T00:07:48.183Z,5.28
2023-05-06T00:10:15.927Z,5.78
2023-05-06T00:12:43.537Z,6.13
2023-05-06T00:15:11.812Z,4.03
2023-05-06T00:17:39.326Z,5.82
2023-05-06T00:20:07.901Z,15.45
2023-05-06T00:22:35.176Z,6.57
2023-05-06T00:25:02.878Z,6.28
2023-05-06T00:27:30.157Z,5.75
2023-05-06T00:29:58.201Z,5.15
2023-05-06T00:32:25.547Z,4.80
2023-05-06T00:34:52.800Z,4.55
2023-05-06T00:37:20.033Z,3.38
2023-05-06T00:39:47.304Z,5.05
2023-05-06T00:42:14.488Z,5.13
2023-05-06T00:44:41.779Z,4.78
2023-05-06T00:47:09.419Z,5.00
2023-05-06T00:49:36.629Z,3.80
2023-05-06T00:52:04.564Z,7.07
2023-05-06T00:54:32.024Z,4.75
2023-05-06T00:56:59.489Z,9.73
2023-05-06T00:59:27.058Z,5.88
2023-05-06T01:01:54.564Z,7.68
2023-05-06T01:04:24.108Z,5.80
2023-05-06T01:07:19.301Z,5.45
2023-05-06T01:10:06.701Z,6.50
2023-05-06T01:12:44.083Z,9.73
2023-05-06T01:15:44.846Z,7.97
2023-05-06T01:20:51.025Z,11.05
2023-05-06T01:23:19.145Z,8.20
2023-05-06T01:25:46.465Z,3.67
2023-05-06T01:28:14.197Z,10.68
2023-05-06T01:30:58.022Z,4.47
2023-05-06T01:33:48.192Z,8.93
2023-05-06T01:37:25.965Z,7.40
2023-05-06T01:39:57.920Z,7.38
2023-05-06T01:42:27.554Z,4.95
2023-05-06T01:44:57.311Z,5.23
2023-05-06T01:47:25.621Z,5.67
2023-05-06T01:49:53.148Z,5.15
2023-05-06T01:52:22.327Z,5.68
2023-05-06T01:54:50.328Z,6.22
2023-05-06T01:57:17.609Z,3.97
2023-05-06T01:59:45.315Z,5.82
2023-05-06T02:02:12.617Z,10.95
2023-05-06T02:04:39.848Z,8.52
2023-05-06T02:07:07.351Z,4.95
2023-05-06T02:09:34.702Z,4.75
2023-05-06T02:12:03.557Z,5.63
2023-05-06T02:14:30.815Z,6.03
2023-05-06T02:17:05.047Z,6.55
2023-05-06T02:19:32.561Z,6.13
2023-05-06T02:21:59.824Z,6.50
2023-05-06T02:24:27.173Z,3.70
2023-05-06T02:26:54.558Z,5.63
2023-05-06T02:29:21.966Z,5.72
2023-05-06T02:31:49.249Z,5.45
2023-05-06T02:34:17.373Z,7.22
2023-05-06T02:36:44.657Z,9.75
2023-05-06T02:39:12.000Z,5.25
2023-05-06T02:41:39.573Z,7.40
2023-05-06T02:44:06.873Z,6.05
2023-05-06T02:46:34.762Z,4.72
2023-05-06T02:49:02.293Z,4.25
2023-05-06T02:51:31.131Z,5.85
2023-05-06T02:53:58.446Z,6.57
2023-05-06T02:56:25.988Z,5.53
2023-05-06T02:58:53.846Z,4.65
2023-05-06T03:01:21.321Z,5.00
2023-05-06T03:03:48.611Z,4.05
2023-05-06T03:06:15.871Z,5.63
2023-05-06T03:08:43.119Z,4.43
2023-05-06T03:11:10.331Z,7.97
2023-05-06T03:13:37.789Z,8.15
2023-05-06T03:16:05.634Z,6.10
2023-05-06T03:18:33.035Z,5.35
2023-05-06T03:21:00.646Z,7.30
2023-05-06T03:23:28.583Z,6.22
2023-05-06T03:25:55.888Z,7.07
2023-05-06T03:28:23.430Z,4.20
2023-05-06T03:30:50.952Z,6.35
2023-05-06T03:33:18.368Z,6.03
2023-05-06T03:35:45.657Z,4.55
2023-05-06T03:38:12.854Z,6.50
2023-05-06T03:40:50.697Z,4.57
2023-05-06T03:43:18.042Z,9.88
2023-05-06T03:45:48.265Z,4.32
2023-05-06T03:48:15.671Z,6.57
2023-05-06T03:50:44.400Z,9.20
2023-05-06T03:53:13.267Z,5.03
2023-05-06T03:55:43.019Z,8.13
2023-05-06T03:58:12.447Z,6.60
2023-05-06T04:00:41.669Z,12.30
2023-05-06T04:03:08.968Z,7.30
2023-05-06T04:05:42.790Z,7.43
2023-05-06T04:08:12.445Z,7.22
2023-05-06T04:10:41.135Z,11.15
2023-05-06T04:13:15.992Z,8.07
2023-05-06T04:15:44.829Z,7.25
2023-05-06T04:18:19.362Z,8.55
2023-05-06T04:20:55.617Z,8.65
2023-05-06T04:23:23.232Z,5.07
2023-05-06T04:25:50.800Z,8.75
2023-05-06T04:28:21.915Z,5.95
2023-05-06T04:30:51.771Z,5.78
2023-05-06T04:33:22.390Z,6.30
2023-05-06T04:35:56.704Z,7.22
2023-05-06T04:38:30.331Z,3.97
2023-05-06T04:40:57.793Z,5.07
2023-05-06T04:43:27.759Z,5.53
2023-05-06T04:46:01.785Z,9.15
2023-05-06T04:48:32.772Z,4.60
2023-05-06T04:51:01.695Z,5.35
2023-05-06T04:53:30.199Z,4.25
2023-05-06T04:55:57.762Z,8.85
2023-05-06T04:58:25.149Z,6.82
2023-05-06T05:00:52.684Z,8.43
2023-05-06T05:03:20.138Z,4.97
2023-05-06T05:05:47.751Z,7.78
2023-05-06T05:08:18.981Z,4.63
2023-05-06T05:10:46.384Z,6.13
2023-05-06T05:13:19.389Z,6.13
2023-05-06T05:15:46.844Z,4.15
2023-05-06T05:18:15.710Z,6.40
2023-05-06T05:20:44.776Z,7.03
2023-05-06T05:23:14.187Z,4.28
2023-05-06T05:25:44.465Z,4.70
2023-05-06T05:28:12.467Z,4.00
2023-05-06T05:30:40.291Z,3.95
2023-05-06T05:33:09.263Z,6.53
2023-05-06T05:35:37.703Z,4.43
2023-05-06T05:38:05.078Z,6.13
2023-05-06T05:40:32.512Z,7.22
2023-05-06T05:42:59.736Z,5.90
2023-05-06T05:45:33.141Z,7.45
2023-05-06T05:48:00.746Z,5.55
2023-05-06T05:50:28.022Z,4.25
2023-05-06T05:52:57.197Z,7.35
2023-05-06T05:55:25.628Z,3.72
2023-05-06T05:57:52.824Z,8.90
2023-05-06T06:00:21.796Z,4.68
2023-05-06T06:02:52.833Z,6.07
2023-05-06T06:05:21.532Z,5.60
2023-05-06T06:07:48.912Z,7.32
2023-05-06T06:10:16.723Z,5.72
2023-05-06T06:12:44.991Z,7.43
2023-05-06T06:15:15.925Z,4.35
2023-05-06T06:17:45.407Z,5.22
2023-05-06T06:20:13.418Z,6.43
2023-05-06T06:22:41.113Z,4.82
2023-05-06T06:25:09.397Z,4.38
2023-05-06T06:27:37.289Z,7.07
2023-05-06T06:30:07.137Z,5.25
2023-05-06T06:32:34.525Z,8.77
2023-05-06T06:35:01.864Z,7.78
2023-05-06T06:37:29.283Z,5.22
2023-05-06T06:39:56.530Z,6.50
2023-05-06T06:42:23.802Z,4.72
2023-05-06T06:45:08.658Z,7.15
2023-05-06T06:50:03.702Z,5.57
2023-05-06T06:52:30.987Z,7.57
2023-05-06T06:54:58.361Z,4.80
2023-05-06T06:57:25.925Z,6.63
2023-05-06T06:59:53.883Z,3.17
2023-05-06T07:02:22.329Z,7.35
2023-05-06T07:04:49.797Z,7.05
2023-05-06T07:07:17.022Z,3.70
2023-05-06T07:09:44.563Z,4.85
2023-05-06T07:12:12.322Z,6.47
2023-05-06T07:14:39.655Z,6.28
2023-05-06T07:17:06.945Z,5.43
2023-05-06T07:19:34.177Z,6.80
2023-05-06T07:22:03.172Z,6.15
2023-05-06T07:24:30.426Z,6.32
2023-05-06T07:26:57.848Z,5.70
2023-05-06T07:29:25.117Z,5.45
2023-05-06T07:31:52.395Z,9.90
2023-05-06T07:34:20.170Z,5.82
2023-05-06T07:36:47.390Z,5.03
2023-05-06T07:39:15.030Z,6.65
2023-05-06T07:41:42.220Z,4.85
2023-05-06T07:44:09.467Z,5.80
2023-05-06T07:46:36.940Z,6.50
2023-05-06T07:49:04.330Z,5.10
2023-05-06T07:51:31.959Z,6.47
2023-05-06T07:53:59.202Z,4.18
2023-05-06T07:56:26.434Z,6.50
2023-05-06T07:58:54.121Z,6.28
2023-05-06T08:01:21.380Z,5.80
2023-05-06T08:03:49.127Z,12.30
2023-05-06T08:06:16.726Z,6.95
2023-05-06T08:08:43.950Z,4.20
2023-05-06T08:11:11.369Z,6.20
2023-05-06T08:13:38.649Z,6.40
2023-05-06T08:16:07.126Z,7.35
2023-05-06T08:18:34.502Z,5.35
2023-05-06T08:21:01.868Z,4.15
2023-05-06T08:23:29.080Z,7.47
2023-05-06T08:25:56.353Z,3.40
2023-05-06T08:28:24.643Z,4.82
2023-05-06T08:30:52.647Z,4.03
2023-05-06T08:33:20.146Z,5.07
2023-05-06T08:35:47.923Z,5.78
2023-05-06T08:38:15.176Z,4.75
2023-05-06T08:40:44.591Z,4.20
2023-05-06T08:43:17.478Z,5.20
2023-05-06T08:45:44.883Z,5.78
2023-05-06T08:48:12.495Z,4.70
2023-05-06T08:50:43.468Z,4.85
2023-05-06T08:53:16.055Z,6.65
2023-05-06T08:55:44.380Z,5.40
2023-05-06T08:58:15.969Z,4.38
2023-05-06T09:00:44.426Z,6.20
2023-05-06T09:03:11.770Z,8.25
2023-05-06T09:05:39.235Z,5.68
2023-05-06T09:08:06.553Z,8.70
2023-05-06T09:10:44.905Z,7.45
2023-05-06T09:13:19.094Z,7.70
2023-05-06T09:15:48.903Z,8.75
2023-05-06T09:18:16.900Z,8.43
2023-05-06T09:20:49.420Z,5.85
2023-05-06T09:23:18.472Z,9.85
2023-05-06T09:25:47.828Z,10.05
2023-05-06T09:28:15.602Z,7.00
2023-05-06T09:30:46.345Z,7.75
2023-05-06T09:33:14.188Z,7.30
2023-05-06T09:35:43.899Z,6.50
2023-05-06T09:38:11.782Z,11.77
2023-05-06T09:40:39.609Z,9.65
2023-05-06T09:43:07.882Z,14.88
2023-05-06T09:45:36.415Z,10.18
2023-05-06T09:48:04.353Z,15.23
2023-05-06T09:50:33.571Z,13.38
2023-05-06T09:53:03.763Z,12.27
2023-05-06T09:55:31.332Z,14.63
2023-05-06T09:58:00.586Z,10.55
2023-05-06T10:00:30.001Z,9.95
2023-05-06T10:02:59.089Z,11.03
2023-05-06T10:05:29.097Z,8.32
2023-05-06T10:07:58.351Z,11.77
2023-05-06T10:10:28.538Z,8.23
2023-05-06T10:12:56.603Z,8.95
2023-05-06T10:15:26.476Z,10.57
2023-05-06T10:17:55.385Z,5.95
2023-05-06T10:20:26.618Z,5.70
2023-05-06T10:23:15.133Z,4.07
2023-05-06T10:25:44.980Z,3.85
2023-05-06T10:28:17.101Z,4.90
2023-05-06T10:30:58.348Z,4.20
2023-05-06T10:33:27.592Z,3.47
2023-05-06T10:36:18.396Z,3.67
2023-05-06T10:38:57.205Z,2.88
2023-05-06T10:41:28.101Z,3.60
2023-05-06T10:43:57.180Z,2.80
2023-05-06T10:46:26.986Z,2.50
2023-05-06T10:49:06.790Z,3.38
2023-05-06T10:51:38.786Z,3.33
2023-05-06T10:54:08.310Z,3.63
2023-05-06T10:57:09.173Z,2.85
2023-05-06T10:59:37.187Z,4.05
2023-05-06T11:02:07.951Z,2.78
2023-05-06T11:04:35.807Z,2.40
2023-05-06T11:07:15.546Z,2.55
2023-05-06T11:10:08.272Z,2.28
2023-05-06T11:12:49.903Z,3.28
2023-05-06T11:15:39.515Z,4.90
2023-05-06T11:18:37.550Z,4.75
2023-05-06T11:21:08.259Z,3.33
2023-05-06T11:23:52.294Z,4.53
2023-05-06T11:26:21.437Z,3.22
2023-05-06T11:28:51.622Z,3.25
2023-05-06T11:31:22.343Z,4.05
2023-05-06T11:33:53.252Z,4.93
2023-05-06T11:36:22.021Z,5.25
2023-05-06T11:38:52.551Z,4.60
2023-05-06T11:41:22.172Z,5.45
2023-05-06T11:43:51.617Z,5.03
2023-05-06T11:46:20.927Z,5.40
2023-05-06T11:48:48.871Z,7.43
2023-05-06T11:51:21.599Z,5.75
2023-05-06T11:53:49.020Z,6.80
2023-05-06T11:56:16.361Z,7.60
2023-05-06T11:58:44.249Z,7.97
2023-05-06T12:01:11.444Z,8.43
2023-05-06T12:03:39.186Z,6.80
2023-05-06T12:06:06.760Z,7.57
2023-05-06T12:08:37.394Z,7.53
2023-05-06T12:11:09.224Z,9.13
2023-05-06T12:13:37.971Z,8.25
2023-05-06T12:16:07.862Z,5.63
2023-05-06T12:18:36.037Z,5.13
2023-05-06T12:21:04.358Z,5.82
2023-05-06T12:23:32.058Z,6.10
2023-05-06T12:26:05.465Z,6.75
2023-05-06T12:28:36.045Z,5.68
2023-05-06T12:31:24.349Z,5.57
2023-05-06T12:33:52.405Z,6.55
2023-05-06T12:36:20.605Z,8.50
2023-05-06T12:38:58.702Z,7.90
2023-05-06T12:41:46.565Z,7.20
2023-05-06T12:44:40.240Z,8.60
2023-05-06T12:47:29.255Z,6.90
2023-05-06T12:49:59.322Z,9.68
2023-05-06T12:52:30.175Z,10.50
2023-05-06T12:55:01.045Z,8.85
2023-05-06T12:57:28.417Z,8.93
2023-05-06T12:59:56.509Z,10.30
2023-05-06T13:02:24.242Z,11.73
2023-05-06T13:04:51.901Z,14.52
2023-05-06T13:07:19.384Z,9.75
2023-05-06T13:09:46.691Z,10.32
2023-05-06T13:12:14.010Z,9.82
2023-05-06T13:14:41.269Z,10.52
2023-05-06T13:17:09.066Z,10.70
2023-05-06T13:19:36.630Z,10.25
2023-05-06T13:22:03.951Z,8.27
2023-05-06T13:24:32.420Z,9.68
2023-05-06T13:27:01.444Z,9.30
2023-05-06T13:29:29.902Z,10.52
2023-05-06T13:31:57.763Z,8.48
2023-05-06T13:34:26.073Z,9.48
2023-05-06T13:36:54.870Z,10.05
2023-05-06T13:39:22.864Z,8.65
2023-05-06T13:41:50.708Z,9.57
2023-05-06T13:44:21.869Z,8.63
2023-05-06T13:46:49.519Z,8.10
2023-05-06T13:49:18.156Z,8.93
2023-05-06T13:51:45.711Z,8.52
2023-05-06T13:54:12.989Z,7.75
2023-05-06T13:56:40.304Z,10.55
2023-05-06T13:59:08.290Z,9.88
2023-05-06T14:01:36.398Z,9.20
2023-05-06T14:04:03.890Z,7.78
2023-05-06T14:06:31.592Z,9.55
2023-05-06T14:08:59.045Z,10.07
2023-05-06T14:11:26.418Z,10.05
2023-05-06T14:13:57.219Z,9.40
2023-05-06T14:16:24.765Z,7.95
2023-05-06T14:18:52.033Z,11.95
2023-05-06T14:21:19.310Z,8.75
2023-05-06T14:23:46.639Z,7.60
2023-05-06T14:26:14.314Z,8.55
2023-05-06T14:28:41.741Z,8.80
2023-05-06T14:31:09.099Z,7.13
2023-05-06T14:33:39.076Z,7.93
2023-05-06T14:36:07.116Z,8.07
2023-05-06T14:38:34.571Z,8.80
2023-05-06T14:41:02.153Z,11.25
2023-05-06T14:43:29.464Z,10.65
2023-05-06T14:45:56.843Z,10.02
2023-05-06T14:48:25.469Z,9.75
2023-05-06T14:50:53.204Z,11.30
2023-05-06T14:53:20.499Z,12.18
2023-05-06T14:55:49.058Z,10.95
2023-05-06T14:58:16.378Z,9.73
2023-05-06T15:00:44.953Z,13.38
2023-05-06T15:03:12.300Z,9.07
2023-05-06T15:05:39.802Z,10.90
2023-05-06T15:08:07.406Z,10.20
2023-05-06T15:10:34.762Z,8.57
2023-05-06T15:13:02.294Z,8.93
2023-05-06T15:15:29.648Z,12.77
2023-05-06T15:17:56.939Z,12.52
2023-05-06T15:20:24.741Z,17.92
2023-05-06T15:22:52.054Z,19.83
2023-05-06T15:25:30.921Z,22.48
2023-05-06T15:28:02.119Z,24.48
2023-05-06T15:30:29.546Z,28.48
2023-05-06T15:32:57.056Z,27.13
2023-05-06T15:35:24.386Z,29.65
2023-05-06T15:37:58.776Z,28.73
2023-05-06T15:40:27.111Z,29.30
2023-05-06T15:42:54.560Z,32.40
2023-05-06T15:45:22.704Z,29.30
2023-05-06T15:47:49.993Z,28.70
2023-05-06T15:50:31.811Z,27.83
2023-05-06T15:53:01.612Z,25.85
2023-05-06T15:55:29.298Z,23.38
2023-05-06T15:57:59.137Z,28.27
2023-05-06T16:00:28.114Z,21.98
2023-05-06T16:02:55.832Z,22.48
2023-05-06T16:05:23.201Z,22.80
2023-05-06T16:07:50.455Z,20.65
2023-05-06T16:10:17.899Z,22.25
2023-05-06T16:12:45.332Z,20.75
2023-05-06T16:15:12.648Z,21.63
2023-05-06T16:17:40.781Z,22.10
2023-05-06T16:20:10.581Z,19.90
2023-05-06T16:22:41.407Z,22.13
2023-05-06T16:25:09.221Z,20.17
2023-05-06T16:27:36.648Z,21.27
2023-05-06T16:30:04.448Z,22.23
2023-05-06T16:32:31.677Z,27.20
2023-05-06T16:34:59.516Z,21.80
2023-05-06T16:37:26.776Z,23.05
2023-05-06T16:39:54.057Z,22.67
2023-05-06T16:42:21.518Z,18.92
2023-05-06T16:44:48.788Z,15.35
2023-05-06T16:47:23.536Z,16.23
2023-05-06T16:49:51.146Z,15.63
2023-05-06T16:52:19.315Z,15.55
2023-05-06T16:54:46.656Z,15.25
2023-05-06T16:57:14.056Z,15.90
2023-05-06T16:59:41.329Z,16.10
2023-05-06T17:02:08.642Z,14.05
2023-05-06T17:04:36.790Z,13.50
2023-05-06T17:07:04.810Z,13.23
2023-05-06T17:09:32.249Z,14.88
2023-05-06T17:11:59.829Z,12.13
2023-05-06T17:14:28.077Z,15.35
2023-05-06T17:16:56.339Z,17.83
2023-05-06T17:19:23.897Z,13.25
2023-05-06T17:21:51.129Z,15.93
2023-05-06T17:24:18.407Z,14.18
2023-05-06T17:26:45.959Z,19.15
2023-05-06T17:29:13.424Z,16.80
2023-05-06T17:31:40.687Z,18.52
2023-05-06T17:34:07.990Z,17.60
2023-05-06T17:36:35.414Z,22.40
2023-05-06T17:39:07.829Z,21.70
2023-05-06T17:41:35.428Z,19.05
2023-05-06T17:44:03.021Z,21.80
2023-05-06T17:46:31.997Z,21.35
2023-05-06T17:48:59.503Z,21.88
2023-05-06T17:51:26.989Z,23.25
2023-05-06T17:53:54.269Z,21.95
2023-05-06T17:56:21.700Z,24.70
2023-05-06T17:58:48.906Z,21.15
2023-05-06T18:01:16.149Z,20.17
2023-05-06T18:03:44.414Z,19.13
2023-05-06T18:06:12.657Z,20.23
2023-05-06T18:08:39.999Z,18.88
2023-05-06T18:11:07.238Z,20.00
2023-05-06T18:13:36.702Z,17.98
2023-05-06T18:16:05.060Z,20.60
2023-05-06T18:18:32.532Z,17.23
2023-05-06T18:20:59.872Z,21.35
2023-05-06T18:23:27.083Z,31.73
2023-05-06T18:25:54.342Z,20.75
2023-05-06T18:28:21.655Z,18.00
2023-05-06T18:30:49.027Z,22.17
2023-05-06T18:33:16.465Z,18.13
2023-05-06T18:35:43.857Z,19.00
2023-05-06T18:38:11.761Z,20.50
2023-05-06T18:40:40.474Z,19.17
2023-05-06T18:43:08.477Z,20.08
2023-05-06T18:45:36.128Z,17.30
2023-05-06T18:48:04.409Z,18.35
2023-05-06T18:50:31.927Z,18.52
2023-05-06T18:52:59.279Z,20.80
2023-05-06T18:55:26.767Z,21.60
2023-05-06T18:57:54.150Z,20.45
2023-05-06T19:00:22.586Z,20.30
2023-05-06T19:02:49.900Z,16.75
2023-05-06T19:05:17.715Z,22.60
2023-05-06T19:07:44.901Z,20.35
2023-05-06T19:10:14.105Z,19.50
2023-05-06T19:12:41.799Z,20.58
2023-05-06T19:15:12.345Z,19.30
2023-05-06T19:17:40.315Z,17.15
2023-05-06T19:20:09.023Z,25.38
2023-05-06T19:22:36.508Z,29.85
2023-05-06T19:25:04.205Z,19.13
2023-05-06T19:27:31.394Z,18.73
2023-05-06T19:29:58.845Z,16.10
2023-05-06T19:32:26.329Z,17.10
2023-05-06T19:34:53.676Z,15.02
2023-05-06T19:37:20.921Z,16.40
2023-05-06T19:39:49.610Z,15.07
2023-05-06T19:42:16.856Z,14.02
2023-05-06T19:44:44.272Z,15.85
2023-05-06T19:47:12.763Z,13.43
2023-05-06T19:49:40.290Z,16.02
2023-05-06T19:52:07.682Z,14.98
2023-05-06T19:54:35.048Z,15.63
2023-05-06T19:57:02.564Z,15.93
2023-05-06T19:59:29.835Z,17.42
2023-05-06T20:02:00.754Z,17.25
2023-05-06T20:04:28.718Z,16.98
2023-05-06T20:06:55.968Z,20.17
2023-05-06T20:09:23.284Z,17.75
2023-05-06T20:11:50.657Z,18.05
2023-05-06T20:14:17.895Z,19.98
2023-05-06T20:16:45.334Z,16.52
2023-05-06T20:19:13.048Z,16.73
2023-05-06T20:21:40.434Z,15.60
2023-05-06T20:24:07.878Z,18.58
2023-05-06T20:26:35.214Z,17.27
2023-05-06T20:29:02.380Z,14.73
2023-05-06T20:31:29.715Z,18.15
2023-05-06T20:33:57.068Z,15.65
2023-05-06T20:36:24.401Z,15.73
2023-05-06T20:38:52.157Z,16.60
2023-05-06T20:41:19.495Z,16.75
2023-05-06T20:43:47.160Z,17.33
2023-05-06T20:46:14.524Z,13.25
2023-05-06T20:48:42.167Z,16.23
2023-05-06T20:51:09.385Z,15.15
2023-05-06T20:53:37.322Z,15.02
2023-05-06T20:56:07.146Z,17.70
2023-05-06T20:58:34.504Z,18.33
2023-05-06T21:01:03.188Z,15.48
2023-05-06T21:03:31.125Z,17.13
2023-05-06T21:05:58.400Z,19.45
2023-05-06T21:08:25.961Z,17.92
2023-05-06T21:10:53.152Z,18.73
2023-05-06T21:13:20.869Z,16.48
2023-05-06T21:15:48.208Z,16.45
2023-05-06T21:18:17.089Z,21.23
2023-05-06T21:20:44.503Z,18.08
2023-05-06T21:23:11.914Z,22.15
2023-05-06T21:25:39.208Z,21.52
2023-05-06T21:28:06.720Z,19.50
2023-05-06T21:30:36.277Z,18.15
2023-05-06T21:33:06.489Z,17.33
2023-05-06T21:35:34.614Z,18.48
2023-05-06T21:38:01.942Z,19.77
2023-05-06T21:40:29.355Z,20.75
2023-05-06T21:42:57.070Z,19.27
2023-05-06T21:45:24.367Z,17.63
2023-05-06T21:47:51.726Z,17.20
2023-05-06T21:50:19.060Z,23.33
2023-05-06T21:52:46.268Z,22.88
2023-05-06T21:55:13.729Z,18.42
2023-05-06T21:57:41.143Z,19.88
2023-05-06T22:00:12.101Z,20.30
2023-05-06T22:02:40.786Z,19.92
2023-05-06T22:05:09.342Z,17.98
2023-05-06T22:07:36.819Z,23.42
2023-05-06T22:10:06.219Z,19.85
2023-05-06T22:12:35.322Z,22.15
2023-05-06T22:15:03.032Z,18.55
2023-05-06T22:17:32.799Z,19.90
2023-05-06T22:20:02.823Z,21.08
2023-05-06T22:22:30.716Z,26.35
2023-05-06T22:25:01.077Z,24.50
2023-05-06T22:27:28.361Z,21.13
2023-05-06T22:29:55.578Z,22.88
2023-05-06T22:32:22.911Z,25.10
2023-05-06T22:34:50.258Z,20.67
2023-05-06T22:37:17.608Z,17.15
2023-05-06T22:39:44.948Z,18.83
2023-05-06T22:42:12.255Z,20.02
2023-05-06T22:44:39.486Z,17.30
2023-05-06T22:47:06.894Z,16.42
2023-05-06T22:49:34.134Z,17.15
2023-05-06T22:52:01.386Z,18.35
2023-05-06T22:54:28.663Z,21.05
2023-05-06T22:56:56.043Z,16.73
2023-05-06T22:59:23.322Z,16.38
2023-05-06T23:01:50.553Z,21.92
2023-05-06T23:04:17.848Z,18.77
2023-05-06T23:06:45.045Z,26.33
2023-05-06T23:09:13.551Z,20.15
2023-05-06T23:11:40.988Z,22.55
2023-05-06T23:14:08.282Z,21.05
2023-05-06T23:16:35.608Z,19.55
2023-05-06T23:19:02.875Z,22.00
2023-05-06T23:21:30.149Z,17.73
2023-05-06T23:23:57.354Z,20.15
2023-05-06T23:26:24.742Z,20.25
2023-05-06T23:28:52.346Z,18.35
2023-05-06T23:31:19.662Z,24.45
2023-05-06T23:33:46.925Z,19.70
2023-05-06T23:36:14.180Z,19.80
2023-05-06T23:38:41.323Z,20.48
2023-05-06T23:41:08.594Z,21.70
2023-05-06T23:43:35.830Z,19.75
2023-05-06T23:46:03.055Z,18.48
2023-05-06T23:48:30.471Z,23.17
2023-05-06T23:50:57.775Z,22.70
2023-05-06T23:53:25.018Z,18.75
2023-05-06T23:55:52.230Z,19.25
2023-05-06T23:58:19.456Z,21.83
